EHAM/AMS METAR and TAF weather

Enter ICAO airport designator
Station Type Date Time Source
EHAM METAR 2021/03/07 08:25 UTC NOAA

EHAM 070825Z 29002KT 9999 BKN036 03/M00 Q1027 NOSIG


Station Type Date Time Source
EHAM Decoded METAR 2021/03/07 08:25 UTC NOAA

Amsterdam Airport Schiphol, Netherlands (EHAM) 52-18N 004-46E -2M
Mar 07, 2021 - 03:25 AM EST / 2021.03.07 0825 UTC
Wind: from the WNW (290 degrees) at 2 MPH (2 KT):0
Visibility: greater than 7 mile(s):0
Sky conditions: mostly cloudy
Temperature: 37 F (3 C)
Dew Point: 32 F (0 C)
Relative Humidity: 80%
Pressure (altimeter): 30.33 in. Hg (1027 hPa)
ob: EHAM 070825Z 29002KT 9999 BKN036 03/M00 Q1027 NOSIG
cycle: 8

Station Type Date Time Source
EHAM TAF 2021/03/07 06:27 UTC NOAA

TAF TAF EHAM 070506Z 0706/0812 VRB03KT 9999 BKN030
BECMG 0709/0712 30006KT
TEMPO 0800/0812 BKN018

Example: see airport list